Latest Coastal Weather Observations for Cape Borda

IDS60701

Issued at 9:41 pm CDT Sunday 26 March 2017 (issued every 10 minutes, with the page automatically refreshed every 10 minutes)

About coastal observations | Map of coastal stations | Coastal observations for SA | Marine services | Other Formats
Station Details ID: 022823 Name: CAPE BORDA Lat: -35.75 Lon: 136.60 Height: 158.0 m
Data from the previous 72 hours. | See also: Recent months at Cape Borda
Date/Time
CDT
Temp
°C
Wind Pressure Rain since
9am
mm
Weather Cloud Vis
km
Sea
Height
m
Swell
Dir  Spd
kts
Gust
kts
hPa Trend Height
m
Period
s
Dir
26/09:30pm 26.2 ENE 14 23 1004.4 - 0.0 - - - - - - -
26/09:00pm 26.4 ENE 15 21 1004.1 - 0.0 - - - - - - -
26/08:30pm 25.8 ENE 16 22 1004.7 - 0.0 - - - - - - -
26/08:00pm 25.0 ENE 16 21 1004.8 - 0.0 - - - - - - -
26/07:30pm 24.5 ENE 17 22 1004.9 - 0.0 - - - - - - -
26/07:00pm 23.9 ENE 15 21 1005.2 - 0.0 - - - - - - -
26/06:30pm 23.5 ENE 15 21 1005.4 - 0.0 - - - - - - -
26/06:00pm 23.6 ENE 14 19 1005.5 - 0.0 - - - - - - -
26/05:30pm 24.5 ENE 15 22 1005.8 - 0.0 - - - - - - -
26/05:00pm 23.0 ENE 15 20 1006.1 - 0.0 - - - - - - -
26/04:30pm 22.9 ENE 16 22 1006.6 - 0.0 - - - - - - -
26/04:00pm 22.6 ENE 16 22 1006.8 - 0.0 - - - - - - -
26/03:30pm 23.7 ENE 14 20 1007.3 - 0.0 - - - - - - -
26/03:00pm 23.2 ENE 16 21 1007.8 F 0.0 Distant precip. Mostly cloudy 20 <0.1 3.5 10 SW
26/02:30pm 23.6 ENE 13 18 1009.1 - 0.0 - - - - - - -
26/02:00pm 21.8 ENE 13 18 1009.6 - 0.0 - - - - - - -
26/01:30pm 21.7 ENE 13 18 1010.2 - 0.0 - - - - - - -
26/01:00pm 22.0 NE 12 17 1010.9 - 0.0 - - - - - - -
26/12:30pm 21.4 NE 13 17 1011.3 - 0.0 - - - - - - -
26/12:00pm 21.8 NE 11 14 1011.9 - 0.0 - - - - - - -
26/11:30am 20.4 NE 10 13 1012.2 - 0.0 - - - - - - -
26/11:00am 20.8 NE 11 15 1012.3 - 0.0 - - - - - - -
26/10:30am 19.7 NE 9 12 1012.3 - 0.0 - - - - - - -
26/10:00am 19.3 ENE 11 14 1012.2 - 0.0 - - - - - - -
26/09:30am 18.5 ENE 9 12 1012.6 - 0.0 - - - - - - -
26/09:00am 18.1 NE 9 11 1012.2 F 0.2 Distant precip. Mostly cloudy 25 <0.1 3.8 10 SW
26/08:30am 17.5 E 7 8 1012.3 - 0.0 - - - - - - -
26/08:00am 17.0 E 8 9 1012.3 - 0.0 - - - - - - -
26/07:30am 17.0 ESE 7 8 1012.6 - 0.0 - - - - - - -
26/07:00am 16.7 SE 7 8 1012.4 - 0.0 - - - - - - -
26/06:30am 16.7 S 4 5 1012.5 - 0.0 - - - - - - -
26/06:00am 17.1 SE 4 5 1011.6 - 0.0 - - - - - - -
26/05:30am 17.1 S 5 5 1011.8 - 0.0 - - - - - - -
26/05:00am 17.3 E 7 8 1011.4 - 0.0 - - - - - - -
26/04:30am 16.9 E 8 9 1011.3 - 0.0 - - - - - - -
26/04:00am 16.7 ESE 7 8 1011.7 - 0.0 - - - - - - -
26/03:30am 17.3 E 8 9 1011.9 - 0.0 - - - - - - -
26/03:00am 17.4 ENE 9 11 1012.4 - 0.0 - - - - - - -
26/02:30am 17.2 NE 8 10 1013.1 - 0.0 - - - - - - -
26/02:00am 16.6 E 8 9 1013.2 - 0.0 - - - - - - -
26/01:30am 16.3 ESE 7 9 1013.8 - 0.0 - - - - - - -
26/01:00am 16.3 ESE 6 7 1014.5 - 0.0 - - - - - - -
26/12:30am 16.4 ESE 7 8 1014.4 - 0.0 - - - - - - -
26/12:00am 16.3 ESE 8 9 1014.0 - 0.0 - - - - - - -
 
Date/Time
CDT
Temp
°C
Wind Pressure Rain since
9am
mm
Weather Cloud Vis
km
Sea
Height
m
Swell
Dir  Spd
kts
Gust
kts
hPa Trend Height
m
Period
s
Dir
25/11:30pm 16.6 E 7 8 1014.7 - 0.0 - - - - - - -
25/11:00pm 16.7 ESE 9 11 1014.9 - 0.0 - - - - - - -
25/10:30pm 16.7 ESE 9 12 1014.8 - 0.0 - - - - - - -
25/10:00pm 16.8 ESE 8 9 1015.0 - 0.0 - - - - - - -
25/09:30pm 17.0 ESE 9 13 1014.7 - 0.0 - - - - - - -
25/09:00pm 17.3 SE 9 12 1014.1 - 0.0 - - - - - - -
25/08:30pm 17.9 SE 7 9 1014.3 - 0.0 - - - - - - -
25/08:00pm 18.5 ESE 8 11 1013.8 - 0.0 - - - - - - -
25/07:30pm 19.2 SE 7 8 1013.8 - 0.0 - - - - - - -
25/07:00pm 20.4 E 4 6 1013.9 - 0.0 - - - - - - -
25/06:30pm 21.4 ENE 4 6 1013.4 - 0.0 - - - - - - -
25/06:00pm 21.4 ENE 3 5 1013.2 - 0.0 - - - - - - -
25/05:30pm 21.4 ENE 5 7 1013.0 - 0.0 - - - - - - -
25/05:00pm 22.3 E 4 6 1013.2 - 0.0 - - - - - - -
25/04:30pm 22.1 N 5 7 1013.3 - 0.0 - - - - - - -
25/04:00pm 22.2 NE 4 6 1013.6 - 0.0 - - - - - - -
25/03:30pm 22.4 N 7 9 1013.6 - 0.0 - - - - - - -
25/03:00pm 23.3 ENE 5 7 1013.1 R 0.0 Fine Mostly cloudy 10 <0.1 2.5 8 SW
25/02:30pm 22.5 N 5 7 1013.7 - 0.0 - - - - - - -
25/02:00pm 23.2 E 4 6 1013.9 - 0.0 - - - - - - -
25/01:30pm 22.9 NNW 3 6 1014.5 - 0.0 - - - - - - -
25/01:00pm 22.9 SE 5 7 1014.6 - 0.0 - - - - - - -
25/12:30pm 22.8 SE 6 9 1014.9 - 0.0 - - - - - - -
25/12:00pm 22.2 SSE 9 12 1014.5 - 0.0 - - - - - - -
25/11:30am 21.7 SE 11 14 1014.8 - 0.0 - - - - - - -
25/11:00am 19.9 SSE 12 16 1014.7 - 0.0 - - - - - - -
25/10:30am 19.6 S 11 15 1014.6 - 0.0 - - - - - - -
25/10:00am 19.2 SSE 12 16 1014.4 - 0.0 - - - - - - -
25/09:30am 18.7 SSE 14 18 1013.8 - 0.0 - - - - - - -
25/09:00am 17.9 SSE 11 15 1013.5 R 0.0 Fine Mostly cloudy 10 <0.1 2.8 9 SW
25/08:30am 17.5 SSE 11 15 1013.4 - 0.0 - - - - - - -
25/08:00am 17.3 S 10 13 1013.2 - 0.0 - - - - - - -
25/07:30am 17.3 S 10 11 1012.9 - 0.0 - - - - - - -
25/07:00am 17.4 S 9 12 1012.4 - 0.0 - - - - - - -
25/06:30am 17.6 S 11 14 1012.1 - 0.0 - - - - - - -
25/06:00am 17.5 S 10 14 1011.7 - 0.0 - - - - - - -
25/05:30am 16.9 S 11 14 1011.7 - 0.0 - - - - - - -
25/05:00am 16.9 S 10 13 1011.7 - 0.0 - - - - - - -
25/04:30am 17.1 S 11 13 1011.3 - 0.0 - - - - - - -
25/04:00am 17.3 S 10 12 1011.3 - 0.0 - - - - - - -
25/03:30am 17.4 S 10 13 1011.5 - 0.0 - - - - - - -
25/03:00am 17.6 S 9 12 1011.6 - 0.0 - - - - - - -
25/02:30am 18.5 SSW 8 10 1012.2 - 0.0 - - - - - - -
25/02:00am 19.7 WSW 6 8 1012.5 - 0.0 - - - - - - -
25/01:30am 18.4 WSW 5 7 1012.5 - 0.0 - - - - - - -
25/01:00am 18.1 ESE 6 7 1012.2 - 0.0 - - - - - - -
25/12:30am 18.2 SE 6 7 1012.7 - 0.0 - - - - - - -
25/12:00am 18.2 S 7 9 1013.0 - 0.0 - - - - - - -
 
Date/Time
CDT
Temp
°C
Wind Pressure Rain since
9am
mm
Weather Cloud Vis
km
Sea
Height
m
Swell
Dir  Spd
kts
Gust
kts
hPa Trend Height
m
Period
s
Dir
24/11:30pm 18.3 SSE 5 7 1013.1 - 0.0 - - - - - - -
24/11:00pm 18.3 S 7 9 1012.9 - 0.0 - - - - - - -
24/10:30pm 18.4 S 7 8 1013.0 - 0.0 - - - - - - -
24/10:00pm 18.6 S 5 6 1013.1 - 0.0 - - - - - - -
24/09:30pm 18.8 SW 6 8 1013.0 - 0.0 - - - - - - -
24/09:00pm 19.2 WSW 6 8 1013.1 - 0.0 - - - - - - -
24/08:30pm 20.5 ENE 7 9 1012.2 - 0.0 - - - - - - -
24/08:00pm 20.1 E 10 12 1012.2 - 0.0 - - - - - - -
24/07:30pm 19.6 E 9 12 1012.3 - 0.0 - - - - - - -
24/07:00pm 19.6 SE 11 13 1012.0 - 0.0 - - - - - - -
24/06:30pm 20.0 SSE 11 14 1012.3 - 0.0 - - - - - - -
24/06:00pm 20.7 SSW 9 11 1012.6 - 0.0 - - - - - - -
24/05:30pm 21.3 SSW 9 12 1012.8 - 0.0 - - - - - - -
24/05:00pm 22.2 SW 11 13 1012.7 - 0.0 - - - - - - -
24/04:30pm 23.2 SW 5 6 1012.6 - 0.0 - - - - - - -
24/04:00pm 24.1 W 7 11 1012.9 - 0.0 - - - - - - -
24/03:30pm 24.1 WNW 5 9 1013.3 - 0.0 - - - - - - -
24/03:00pm 23.9 N 6 9 1013.1 R 0.0 Fine Mostly cloudy 20 <0.1 2.5 6 SW
24/02:30pm 23.7 NNE 7 9 1013.6 - 0.0 - - - - - - -
24/02:00pm 23.6 NNE 8 12 1013.7 - 0.0 - - - - - - -
24/01:30pm 23.6 NE 9 12 1013.9 - 0.0 - - - - - - -
24/01:00pm 23.3 NE 11 14 1014.0 - 0.0 - - - - - - -
24/12:30pm 23.1 NE 12 17 1014.2 - 0.0 - - - - - - -
24/12:00pm 23.4 NE 13 18 1014.2 - 0.0 - - - - - - -
24/11:30am 22.9 NE 14 20 1014.0 - 0.0 - - - - - - -
24/11:00am 22.6 ENE 13 19 1014.0 - 0.0 - - - - - - -
24/10:30am 22.8 ENE 12 19 1014.5 - 0.0 - - - - - - -
24/10:00am 21.9 ENE 10 15 1014.4 - 0.0 - - - - - - -
24/09:30am 21.6 ENE 11 15 1014.2 - 0.0 - - - - - - -
24/09:00am 21.3 E 10 14 1014.1 F 0.0 Fine Mostly cloudy 15 <0.5 3.5 6 SW
24/08:30am 20.2 E 10 13 1014.6 - 0.0 - - - - - - -
24/08:00am 19.9 ENE 10 13 1014.5 - 0.0 - - - - - - -
24/07:30am 19.9 E 10 13 1014.6 - 0.0 - - - - - - -
24/07:00am 20.1 ENE 11 14 1014.4 - 0.0 - - - - - - -
24/06:30am 20.4 ENE 13 17 1013.7 - 0.0 - - - - - - -
24/06:00am 20.7 ENE 14 19 1013.2 - 0.0 - - - - - - -
24/05:30am 20.5 ENE 13 19 1013.6 - 0.0 - - - - - - -
24/05:00am 18.8 E 11 14 1013.6 - 0.0 - - - - - - -
24/04:30am 18.3 E 10 14 1014.4 - 0.0 - - - - - - -
24/04:00am 18.2 E 11 14 1014.2 - 0.0 - - - - - - -
24/03:30am 18.3 E 11 15 1014.4 - 0.0 - - - - - - -
24/03:00am 18.3 ESE 12 17 1014.3 - 0.0 - - - - - - -
24/02:30am 18.0 ESE 12 16 1015.2 - 0.0 - - - - - - -
24/02:00am 16.9 ESE 11 14 1015.4 - 0.0 - - - - - - -
24/01:30am 16.6 ESE 11 15 1015.9 - 0.0 - - - - - - -
24/01:00am 16.6 ESE 12 16 1016.1 - 0.0 - - - - - - -
24/12:30am 16.6 ESE 13 18 1016.3 - 0.0 - - - - - - -
24/12:00am 16.3 ESE 13 19 1016.6 - 0.0 - - - - - - -
 
Date/Time
CDT
Temp
°C
Wind Pressure Rain since
9am
mm
Weather Cloud Vis
km
Sea
Height
m
Swell
Dir  Spd
kts
Gust
kts
hPa Trend Height
m
Period
s
Dir
23/11:30pm 16.2 ESE 12 16 1017.2 - 0.0 - - - - - - -
23/11:00pm 16.2 ESE 13 17 1017.3 - 0.0 - - - - - - -
23/10:30pm 16.3 ESE 12 15 1017.8 - 0.0 - - - - - - -
23/10:00pm 16.1 ESE 12 15 1017.6 - 0.0 - - - - - - -

Other Formats:

Comma delimited format used in spreadsheet applications
http://www.bom.gov.au/fwo/IDS60701/IDS60701.95805.axf

JavaScript Object Notation format (JSON) in row-major order
http://www.bom.gov.au/fwo/IDS60701/IDS60701.95805.json